Time;durP1;ratioP1;P1;durP2;ratioP2;P2;SDS_P1;SDS_P2;PMS_P1;PMS_P2;Temp;Humidity;BMP_temperature;BMP_pressure;BME280_temperature;BME280_humidity;BME280_pressure;Samples;Min_cycle;Max_cycle;Signal;HPM_P1;HPM_P2
2022/06/22 00:00:18;;;;;;;4.07;1.10;;;22.20;99.90;;;;;;5008577;23;20054;-46
2022/06/22 00:02:45;;;;;;;6.70;0.73;;;22.20;99.90;;;;;;4992814;28;20038;-47
2022/06/22 00:05:41;;;;;;;3.80;0.82;;;22.20;99.90;;;;;;4992750;28;20018;-47
2022/06/22 00:08:11;;;;;;;4.00;0.88;;;22.20;99.90;;;;;;4991629;28;20088;-47
2022/06/22 00:10:52;;;;;;;5.30;1.42;;;22.20;99.90;;;;;;4992529;28;20543;-47
2022/06/22 00:13:23;;;;;;;9.35;1.42;;;22.20;99.90;;;;;;4991843;28;20089;-47
2022/06/22 00:15:53;;;;;;;3.17;0.90;;;22.20;99.90;;;;;;4992503;28;20084;-47
2022/06/22 00:18:39;;;;;;;7.78;1.08;;;22.20;99.90;;;;;;4992442;28;20031;-47
2022/06/22 00:21:15;;;;;;;6.00;0.88;;;22.30;99.90;;;;;;4992468;28;20022;-47
2022/06/22 00:23:44;;;;;;;5.72;1.20;;;22.20;99.90;;;;;;4992293;28;20022;-47
2022/06/22 00:26:22;;;;;;;5.68;1.20;;;22.20;99.90;;;;;;4992447;28;20118;-47
2022/06/22 00:29:09;;;;;;;8.63;1.88;;;22.30;99.90;;;;;;4992403;28;20512;-47
2022/06/22 00:31:56;;;;;;;4.88;0.88;;;22.30;99.90;;;;;;4992415;28;20033;-47
2022/06/22 00:34:23;;;;;;;;;;;22.20;99.90;;;;;;4992503;28;20427;-47
2022/06/22 00:36:57;;;;;;;5.53;0.98;;;22.20;99.90;;;;;;4992509;28;20287;-47
2022/06/22 00:39:29;;;;;;;3.60;0.70;;;22.20;99.90;;;;;;4992195;28;20038;-47
2022/06/22 00:42:24;;;;;;;5.85;0.80;;;22.20;99.90;;;;;;4990838;28;20102;-46
2022/06/22 00:45:12;;;;;;;10.70;1.60;;;22.20;99.90;;;;;;4984929;28;20038;-47
2022/06/22 00:47:53;;;;;;;3.95;0.60;;;22.20;99.90;;;;;;4992057;28;20033;-47
2022/06/22 00:50:25;;;;;;;2.97;0.60;;;22.20;99.90;;;;;;4991829;28;20030;-48
2022/06/22 00:52:54;;;;;;;3.78;1.13;;;22.20;99.90;;;;;;4990685;28;20038;-49
2022/06/22 00:55:25;;;;;;;5.93;1.15;;;22.10;99.90;;;;;;4992002;28;20027;-47
2022/06/22 00:58:16;;;;;;;5.00;1.70;;;22.10;99.90;;;;;;4991872;28;20077;-48
2022/06/22 01:00:58;;;;;;;4.80;1.00;;;22.10;99.90;;;;;;4994342;23;20058;-55
2022/06/22 01:03:51;;;;;;;8.90;1.27;;;22.10;99.90;;;;;;4991887;28;20093;-56
2022/06/22 01:06:24;;;;;;;10.65;5.32;;;22.00;99.90;;;;;;4987762;28;20117;-56
2022/06/22 01:09:12;;;;;;;7.03;1.33;;;22.10;99.90;;;;;;4991898;28;20476;-56
2022/06/22 01:14:35;;;;;;;8.80;1.52;;;22.10;99.90;;;;;;4991766;28;20088;-57
2022/06/22 01:17:03;;;;;;;10.23;1.58;;;22.00;99.90;;;;;;4991901;28;20019;-56
2022/06/22 01:19:35;;;;;;;9.43;1.73;;;22.00;99.90;;;;;;4991746;28;20031;-56
2022/06/22 01:22:33;;;;;;;8.38;1.00;;;22.00;99.90;;;;;;4991824;28;20057;-56
2022/06/22 01:25:24;;;;;;;7.10;1.20;;;22.00;99.90;;;;;;4992812;28;20030;-55
2022/06/22 01:27:51;;;;;;;10.18;1.10;;;21.90;99.90;;;;;;4995672;28;20030;-55
2022/06/22 01:30:31;;;;;;;11.05;1.42;;;22.00;99.90;;;;;;4995790;28;20116;-55
2022/06/22 01:32:57;;;;;;;12.80;1.90;;;22.00;99.90;;;;;;4995631;28;20488;-56
2022/06/22 01:35:30;;;;;;;7.28;1.00;;;21.90;99.90;;;;;;4995651;28;20030;-57
2022/06/22 01:37:56;;;;;;;8.10;2.15;;;22.00;99.90;;;;;;4995503;28;20361;-55
2022/06/22 01:40:39;;;;;;;8.27;1.80;;;21.90;99.90;;;;;;4994084;28;20033;-55
2022/06/22 01:43:23;;;;;;;12.40;1.30;;;21.90;99.90;;;;;;4995536;28;20033;-55
2022/06/22 01:45:56;;;;;;;11.07;0.95;;;21.90;99.90;;;;;;4995239;28;20062;-55
2022/06/22 01:48:40;;;;;;;9.23;1.63;;;21.90;99.90;;;;;;4995250;28;20030;-55
2022/06/22 01:51:29;;;;;;;10.60;1.52;;;21.80;99.90;;;;;;4995371;28;20050;-56
2022/06/22 01:54:04;;;;;;;7.80;1.23;;;21.80;99.90;;;;;;4995022;28;20488;-55
2022/06/22 01:56:39;;;;;;;6.45;1.65;;;21.80;99.90;;;;;;4995042;28;20383;-55
2022/06/22 01:59:19;;;;;;;7.85;1.30;;;21.80;99.90;;;;;;4995877;28;20574;-55
2022/06/22 02:01:57;;;;;;;7.30;0.90;;;21.80;99.90;;;;;;4995077;28;20030;-55
2022/06/22 02:04:34;;;;;;;6.63;1.02;;;21.80;99.90;;;;;;4995022;28;20023;-55
2022/06/22 02:10:24;;;;;;;5.93;0.70;;;21.80;99.90;;;;;;4995243;28;19952;-55
2022/06/22 02:13:08;;;;;;;6.78;1.45;;;21.80;99.90;;;;;;4994888;28;20026;-55
2022/06/22 02:15:40;;;;;;;5.82;1.15;;;21.80;99.90;;;;;;4994939;28;20042;-55
2022/06/22 02:18:36;;;;;;;8.55;1.42;;;21.80;99.90;;;;;;4994946;28;20029;-55
2022/06/22 02:21:13;;;;;;;6.88;1.20;;;21.80;99.90;;;;;;4993489;28;20429;-55
2022/06/22 02:23:39;;;;;;;;;;;21.80;99.90;;;;;;4995238;28;20145;-56
2022/06/22 02:26:28;;;;;;;4.13;0.82;;;21.70;99.90;;;;;;4994714;28;20014;-54
2022/06/22 02:28:56;;;;;;;6.43;1.63;;;21.70;99.90;;;;;;4994708;28;20076;-55
2022/06/22 02:31:21;;;;;;;6.78;1.25;;;21.70;99.90;;;;;;4994595;28;20030;-55
2022/06/22 02:33:53;;;;;;;5.60;1.30;;;21.70;99.90;;;;;;4994382;28;20038;-56
2022/06/22 02:36:20;;;;;;;9.07;1.60;;;21.70;99.90;;;;;;4993643;28;20642;-55
2022/06/22 02:38:48;;;;;;;5.93;1.25;;;21.70;99.90;;;;;;4994365;28;20030;-55
2022/06/22 02:46:45;;;;;;;4.45;1.27;;;21.60;99.90;;;;;;4994315;28;20498;-56
2022/06/22 02:49:23;;;;;;;7.25;1.20;;;21.60;99.90;;;;;;4994352;28;20027;-55
2022/06/22 02:51:50;;;;;;;5.10;2.13;;;21.60;99.90;;;;;;4994099;28;20453;-56
2022/06/22 02:54:28;;;;;;;5.00;0.95;;;21.60;99.90;;;;;;4994169;28;20030;-56
2022/06/22 02:57:15;;;;;;;6.57;1.00;;;21.60;99.90;;;;;;4994139;28;20373;-56
2022/06/22 02:59:42;;;;;;;6.53;1.50;;;21.60;99.90;;;;;;5008267;23;20121;-48
2022/06/22 03:02:09;;;;;;;5.07;1.67;;;21.60;99.90;;;;;;4993967;28;20035;-47
2022/06/22 03:04:36;;;;;;;3.50;1.20;;;21.60;99.90;;;;;;4993811;28;20041;-47
2022/06/22 03:07:04;;;;;;;5.10;1.38;;;21.50;99.90;;;;;;4993924;28;20389;-47
2022/06/22 03:09:30;;;;;;;5.82;1.55;;;21.50;99.90;;;;;;4993827;28;20030;-47
2022/06/22 03:11:59;;;;;;;7.03;0.80;;;21.60;99.90;;;;;;4993629;28;20041;-47
2022/06/22 03:14:36;;;;;;;7.68;0.90;;;21.60;99.90;;;;;;4993575;28;20035;-47
2022/06/22 03:17:05;;;;;;;6.63;0.90;;;21.60;99.90;;;;;;4993728;28;20045;-47
2022/06/22 03:19:45;;;;;;;1.88;0.90;;;21.50;99.90;;;;;;4993732;28;20089;-47
2022/06/22 03:22:30;;;;;;;7.50;1.38;;;21.50;99.90;;;;;;4992502;28;20361;-47
2022/06/22 03:25:04;;;;;;;4.45;1.25;;;21.60;99.90;;;;;;4993530;28;20018;-47
2022/06/22 03:27:39;;;;;;;4.57;0.75;;;21.50;99.90;;;;;;4993462;28;20029;-48
2022/06/22 03:30:21;;;;;;;7.40;0.98;;;21.50;99.90;;;;;;4993541;28;20061;-47
2022/06/22 03:33:05;;;;;;;6.13;1.23;;;21.60;99.90;;;;;;4992168;28;20053;-48
2022/06/22 03:36:07;;;;;;;7.53;0.80;;;21.60;99.90;;;;;;4993477;28;20030;-48
2022/06/22 03:38:38;;;;;;;11.65;1.60;;;21.50;99.90;;;;;;4988523;28;20045;-48
2022/06/22 03:41:15;;;;;;;4.00;1.15;;;21.50;99.90;;;;;;4993209;28;20022;-48
2022/06/22 03:43:43;;;;;;;3.78;1.20;;;21.50;99.90;;;;;;4993290;28;20081;-48
2022/06/22 03:46:33;;;;;;;7.28;1.05;;;21.50;99.90;;;;;;4993009;28;20037;-48
2022/06/22 03:49:18;;;;;;;7.32;1.67;;;21.40;99.90;;;;;;4992831;28;20077;-48
2022/06/22 03:52:09;;;;;;;5.38;0.95;;;21.40;99.90;;;;;;4993328;28;20535;-48
2022/06/22 03:54:44;;;;;;;5.80;0.82;;;21.30;99.90;;;;;;4993006;28;20121;-48
2022/06/22 03:57:12;;;;;;;7.47;1.45;;;21.30;99.90;;;;;;4992860;28;20415;-47
2022/06/22 03:59:41;;;;;;;6.72;2.10;;;21.30;99.90;;;;;;5008904;23;20074;-57
2022/06/22 04:02:07;;;;;;;5.88;1.30;;;21.30;99.90;;;;;;4993353;28;20038;-56
2022/06/22 04:04:33;;;;;;;7.35;1.77;;;21.20;99.90;;;;;;4992766;28;20014;-56
2022/06/22 04:06:59;;;;;;;3.78;1.58;;;21.10;99.90;;;;;;4991532;28;20383;-56
2022/06/22 04:09:28;;;;;;;8.65;1.20;;;21.10;99.90;;;;;;4992842;28;20034;-56
2022/06/22 04:12:14;;;;;;;6.03;1.38;;;21.10;99.90;;;;;;4992564;28;20030;-55
2022/06/22 04:14:48;;;;;;;5.05;1.10;;;21.10;99.90;;;;;;4992590;28;20037;-54
2022/06/22 04:17:29;;;;;;;7.65;1.02;;;21.00;99.90;;;;;;4992989;28;20034;-56
2022/06/22 04:20:09;;;;;;;5.80;0.80;;;21.00;99.90;;;;;;4992522;28;20026;-54
2022/06/22 04:22:39;;;;;;;6.43;1.10;;;21.00;99.90;;;;;;4992543;28;20031;-55
2022/06/22 04:25:15;;;;;;;5.25;0.80;;;21.00;99.90;;;;;;4992534;28;20109;-55
2022/06/22 04:27:45;;;;;;;4.57;1.00;;;21.00;99.90;;;;;;4992540;28;20028;-55
2022/06/22 04:30:13;;;;;;;3.83;0.80;;;21.00;99.90;;;;;;4992330;28;20031;-56
2022/06/22 04:32:55;;;;;;;5.97;1.10;;;21.00;99.90;;;;;;4992290;28;20038;-56
2022/06/22 04:35:32;;;;;;;4.85;0.98;;;21.00;99.90;;;;;;4992084;28;20088;-55
2022/06/22 04:38:05;;;;;;;3.83;1.00;;;21.00;99.90;;;;;;4992306;28;20028;-56
2022/06/22 04:40:36;;;;;;;6.47;1.08;;;21.00;99.90;;;;;;4992228;28;20077;-55
2022/06/22 04:43:04;;;;;;;3.55;1.17;;;21.10;99.90;;;;;;4992063;28;20036;-56
2022/06/22 04:45:39;;;;;;;4.50;1.55;;;21.10;99.90;;;;;;4992118;28;20029;-55
2022/06/22 04:48:21;;;;;;;3.88;1.05;;;21.10;99.90;;;;;;4992039;28;20019;-55
2022/06/22 04:50:51;;;;;;;3.78;1.00;;;21.10;99.90;;;;;;4992230;28;20022;-55
2022/06/22 04:53:22;;;;;;;5.93;1.85;;;21.10;99.90;;;;;;4992164;28;20113;-54
2022/06/22 04:55:49;;;;;;;5.70;1.30;;;21.10;99.90;;;;;;4990867;28;20018;-55
2022/06/22 04:58:51;;;;;;;8.57;1.42;;;21.10;99.90;;;;;;4990971;28;20068;-55
2022/06/22 05:01:45;;;;;;;7.47;1.02;;;21.10;99.90;;;;;;4991754;28;20049;-54
2022/06/22 05:04:25;;;;;;;4.68;0.77;;;21.20;99.90;;;;;;4988877;28;20038;-54
2022/06/22 05:06:57;;;;;;;4.65;0.90;;;21.20;99.90;;;;;;4991860;28;20014;-55
2022/06/22 05:09:55;;;;;;;6.55;0.85;;;21.20;99.90;;;;;;4991827;28;20096;-55
2022/06/22 05:12:25;;;;;;;7.45;1.33;;;21.20;99.90;;;;;;4972920;28;20053;-54
2022/06/22 05:14:55;;;;;;;9.35;1.65;;;21.30;99.90;;;;;;4991879;28;20476;-57
2022/06/22 05:17:31;;;;;;;8.43;1.20;;;21.30;99.90;;;;;;4991981;28;20064;-55
2022/06/22 05:20:15;;;;;;;3.17;1.25;;;21.30;99.90;;;;;;4991938;28;20037;-55
2022/06/22 05:22:40;;;;;;;10.02;2.08;;;21.30;99.90;;;;;;4991791;28;20205;-55
2022/06/22 05:25:11;;;;;;;6.22;1.80;;;21.40;99.90;;;;;;4991815;28;20492;-55
2022/06/22 05:27:53;;;;;;;4.85;1.20;;;21.30;99.90;;;;;;4991843;28;20026;-55
2022/06/22 05:30:20;;;;;;;8.20;1.75;;;21.20;99.90;;;;;;4991879;28;20022;-54
2022/06/22 05:32:58;;;;;;;8.63;1.73;;;21.20;99.90;;;;;;4991486;28;20058;-54
2022/06/22 05:35:31;;;;;;;6.20;1.73;;;21.20;99.90;;;;;;4991377;28;20027;-54
2022/06/22 05:37:58;;;;;;;10.18;1.60;;;21.20;99.90;;;;;;4991606;28;20054;-56
2022/06/22 05:40:28;;;;;;;5.15;1.42;;;21.10;99.90;;;;;;4990034;28;20117;-57
2022/06/22 05:42:55;;;;;;;6.82;1.70;;;21.20;99.90;;;;;;4979284;28;20054;-57
2022/06/22 05:45:27;;;;;;;4.40;1.00;;;21.30;99.90;;;;;;4990725;28;20038;-57
2022/06/22 05:47:55;;;;;;;8.55;2.70;;;21.30;99.90;;;;;;4990241;28;20499;-57
2022/06/22 05:50:27;;;;;;;10.75;1.40;;;21.40;99.90;;;;;;4989729;28;20026;-57
2022/06/22 05:53:11;;;;;;;9.23;1.38;;;21.40;99.90;;;;;;4989592;28;20030;-58
2022/06/22 05:55:56;;;;;;;7.80;1.40;;;21.50;99.90;;;;;;4989675;28;20019;-58
2022/06/22 05:58:29;;;;;;;6.30;1.40;;;21.50;99.90;;;;;;4989627;28;20469;-58
2022/06/22 06:00:58;;;;;;;3.25;0.85;;;21.60;99.90;;;;;;4989455;28;20046;-58
2022/06/22 06:03:46;;;;;;;7.30;1.63;;;21.70;99.90;;;;;;4990793;28;20026;-58
2022/06/22 06:06:21;;;;;;;4.47;1.40;;;21.80;99.90;;;;;;4991281;28;20057;-56
2022/06/22 06:08:59;;;;;;;10.98;1.67;;;21.80;99.90;;;;;;4991289;28;20026;-57
2022/06/22 06:11:33;;;;;;;10.23;1.88;;;21.90;99.90;;;;;;4991204;28;20089;-55
2022/06/22 06:14:03;;;;;;;11.30;2.83;;;22.00;99.90;;;;;;4994855;28;20133;-55
2022/06/22 06:16:49;;;;;;;9.63;1.45;;;22.00;99.90;;;;;;4994778;28;20049;-54
2022/06/22 06:19:22;;;;;;;7.18;2.38;;;22.10;99.90;;;;;;4994591;28;20113;-54
2022/06/22 06:21:54;;;;;;;6.07;2.05;;;22.10;99.90;;;;;;4994594;28;20109;-56
2022/06/22 06:24:38;;;;;;;9.48;1.48;;;22.20;99.90;;;;;;4994803;28;20031;-56
2022/06/22 06:30:07;;;;;;;9.18;2.10;;;22.20;99.90;;;;;;4994554;28;20499;-57
2022/06/22 06:32:41;;;;;;;7.10;1.73;;;22.30;99.90;;;;;;4994298;28;20023;-57
2022/06/22 06:35:31;;;;;;;9.32;2.53;;;22.20;99.90;;;;;;4994535;28;20029;-55
2022/06/22 06:38:27;;;;;;;3.20;1.15;;;22.30;99.90;;;;;;4994519;28;20033;-55
2022/06/22 06:40:53;;;;;;;5.60;2.50;;;22.30;99.90;;;;;;4994648;28;20027;-54
2022/06/22 06:43:40;;;;;;;10.57;1.67;;;22.30;99.90;;;;;;4994270;28;20383;-58
2022/06/22 06:46:17;;;;;;;4.50;1.15;;;22.30;99.90;;;;;;4994255;28;20031;-59
2022/06/22 06:48:49;;;;;;;7.30;1.65;;;22.40;99.90;;;;;;4994334;28;20038;-58
2022/06/22 06:51:17;;;;;;;8.63;1.50;;;22.40;99.90;;;;;;4993997;28;20069;-57
2022/06/22 06:53:46;;;;;;;5.70;1.98;;;22.40;99.90;;;;;;4993994;28;20090;-58
2022/06/22 06:56:25;;;;;;;4.97;2.10;;;22.40;99.90;;;;;;4994006;28;20034;-58
2022/06/22 06:58:55;;;;;;;7.68;3.20;;;22.50;99.90;;;;;;4994075;28;20026;-58
2022/06/22 07:01:27;;;;;;;10.02;1.95;;;22.50;99.90;;;;;;4993939;28;20448;-58
2022/06/22 07:04:02;;;;;;;7.93;1.67;;;22.50;99.90;;;;;;4994135;28;20046;-58
2022/06/22 07:06:29;;;;;;;5.55;1.60;;;22.60;99.90;;;;;;4993836;28;20030;-57
2022/06/22 07:09:04;;;;;;;10.95;2.47;;;22.60;99.90;;;;;;4994035;28;20018;-59
2022/06/22 07:11:42;;;;;;;5.20;1.33;;;22.70;99.90;;;;;;4993649;28;20034;-56
2022/06/22 07:14:26;;;;;;;6.32;1.45;;;22.70;99.90;;;;;;4992404;28;20042;-56
2022/06/22 07:16:57;;;;;;;6.07;1.20;;;22.80;99.90;;;;;;4993880;28;20045;-57
2022/06/22 07:19:28;;;;;;;5.38;1.15;;;22.80;99.90;;;;;;4993697;28;20037;-58
2022/06/22 07:22:09;;;;;;;6.95;1.10;;;22.80;99.90;;;;;;4993616;28;20030;-56
2022/06/22 07:24:38;;;;;;;7.90;1.85;;;22.80;99.90;;;;;;4993071;28;20019;-56
2022/06/22 07:27:41;;;;;;;8.60;2.58;;;22.90;99.90;;;;;;4993317;28;20468;-56
2022/06/22 07:30:36;;;;;;;7.55;1.25;;;22.90;99.90;;;;;;4993294;28;20101;-57
2022/06/22 07:33:07;;;;;;;7.80;1.48;;;22.90;99.90;;;;;;4988554;28;20050;-56
2022/06/22 07:36:15;;;;;;;11.48;1.63;;;23.00;99.90;;;;;;4993239;28;20030;-56
2022/06/22 07:38:47;;;;;;;4.10;1.55;;;23.00;99.90;;;;;;4989961;28;20039;-56
2022/06/22 07:41:19;;;;;;;7.13;1.92;;;23.00;99.90;;;;;;4992997;28;20033;-56
2022/06/22 07:44:07;;;;;;;8.80;2.17;;;23.00;99.90;;;;;;4991743;28;20033;-57
2022/06/22 07:46:45;;;;;;;8.13;1.50;;;23.00;99.90;;;;;;4992959;28;20077;-57
2022/06/22 07:49:19;;;;;;;6.88;1.48;;;23.00;99.90;;;;;;4993104;28;20026;-58
2022/06/22 07:51:57;;;;;;;11.48;2.30;;;23.00;99.90;;;;;;4992901;28;20045;-57
2022/06/22 07:54:22;;;;;;;;;;;23.00;99.90;;;;;;4993297;28;20034;-57
2022/06/22 07:57:13;;;;;;;11.07;1.70;;;23.10;99.90;;;;;;4992983;28;20562;-58
2022/06/22 07:59:42;;;;;;;5.15;1.80;;;23.10;99.90;;;;;;4991342;28;20038;-57
2022/06/22 08:02:18;;;;;;;8.00;2.50;;;23.10;99.90;;;;;;4992807;28;20077;-57
2022/06/22 08:05:04;;;;;;;8.13;1.85;;;23.10;99.90;;;;;;4991455;28;20383;-56
2022/06/22 08:08:01;;;;;;;5.72;1.55;;;23.10;99.90;;;;;;4992776;28;20037;-60
2022/06/22 08:10:41;;;;;;;10.27;2.25;;;23.10;99.90;;;;;;4988470;28;20050;-58
2022/06/22 08:13:27;;;;;;;5.95;1.95;;;23.10;99.90;;;;;;4992407;28;20038;-57
2022/06/22 08:16:01;;;;;;;5.85;1.67;;;23.10;99.90;;;;;;4992663;28;20026;-57
2022/06/22 08:18:29;;;;;;;10.55;2.30;;;23.10;99.90;;;;;;4992487;28;20033;-57
2022/06/22 08:20:57;;;;;;;6.22;1.95;;;23.20;99.90;;;;;;4992688;28;20399;-58
2022/06/22 08:23:27;;;;;;;5.63;2.42;;;23.10;99.90;;;;;;4992323;28;20018;-58
2022/06/22 08:25:56;;;;;;;7.78;1.80;;;23.20;99.90;;;;;;4992459;28;20050;-57
2022/06/22 08:28:24;;;;;;;2.58;1.40;;;23.20;99.90;;;;;;4992266;28;20026;-58
2022/06/22 08:30:53;;;;;;;8.18;1.75;;;23.20;99.90;;;;;;4992435;28;20022;-59
2022/06/22 08:33:40;;;;;;;6.10;0.90;;;23.20;99.90;;;;;;4992174;28;20551;-58
2022/06/22 08:36:29;;;;;;;5.95;1.20;;;23.20;99.90;;;;;;4991428;28;20065;-57
2022/06/22 08:39:05;;;;;;;7.38;1.48;;;23.20;99.90;;;;;;4992112;28;20435;-56
2022/06/22 08:41:49;;;;;;;4.07;1.50;;;23.20;99.90;;;;;;4992348;28;20114;-59
2022/06/22 08:44:27;;;;;;;4.75;0.98;;;23.30;99.90;;;;;;4992123;28;20037;-59
2022/06/22 08:47:19;;;;;;;7.15;1.48;;;23.30;99.90;;;;;;4990861;28;20022;-60
2022/06/22 08:49:57;;;;;;;3.60;1.30;;;23.30;99.90;;;;;;4991941;28;20027;-60
2022/06/22 08:52:41;;;;;;;;;;;23.30;99.90;;;;;;4992387;28;20030;-59
2022/06/22 08:55:21;;;;;;;4.93;1.40;;;23.30;99.90;;;;;;4991984;28;19913;-60
2022/06/22 08:57:56;;;;;;;5.68;1.25;;;23.40;99.90;;;;;;4991980;28;20034;-58
2022/06/22 09:00:44;;;;;;;6.57;1.73;;;23.40;99.90;;;;;;4990460;28;20377;-59
2022/06/22 09:03:22;;;;;;;6.47;1.83;;;23.40;99.90;;;;;;4991875;28;20109;-59
2022/06/22 09:06:04;;;;;;;6.95;1.50;;;23.40;99.90;;;;;;4990569;28;20053;-59
2022/06/22 09:08:48;;;;;;;5.20;1.90;;;23.40;99.90;;;;;;4990359;28;20045;-60
2022/06/22 09:11:29;;;;;;;4.90;1.20;;;23.50;99.90;;;;;;4992081;28;20054;-60
2022/06/22 09:14:12;;;;;;;6.93;1.70;;;23.50;99.90;;;;;;4991577;28;20154;-59
2022/06/22 09:17:05;;;;;;;8.73;2.03;;;23.50;99.90;;;;;;4991701;28;20053;-59
2022/06/22 09:19:41;;;;;;;4.57;2.05;;;23.50;99.90;;;;;;4990743;28;20034;-59
2022/06/22 09:22:19;;;;;;;6.55;1.30;;;23.50;99.90;;;;;;4991659;28;20026;-59
2022/06/22 09:24:48;;;;;;;4.45;1.40;;;23.50;99.90;;;;;;4991772;28;20105;-60
2022/06/22 09:27:18;;;;;;;5.40;1.45;;;23.50;99.90;;;;;;4991699;28;20085;-59
2022/06/22 09:30:03;;;;;;;6.35;1.42;;;23.50;99.90;;;;;;4991695;28;20038;-60
2022/06/22 09:33:05;;;;;;;5.88;1.20;;;23.50;99.90;;;;;;4990184;28;20027;-59
2022/06/22 09:35:49;;;;;;;4.90;1.08;;;23.50;99.90;;;;;;4991546;28;20491;-60
2022/06/22 09:38:21;;;;;;;4.95;1.15;;;23.50;99.90;;;;;;4991537;28;20018;-59
2022/06/22 09:41:24;;;;;;;8.40;1.33;;;23.50;99.90;;;;;;4991701;28;20034;-60
2022/06/22 09:44:20;;;;;;;4.97;1.77;;;23.50;99.90;;;;;;4991578;28;20023;-59
2022/06/22 09:47:17;;;;;;;7.80;4.60;;;23.50;99.90;;;;;;4993823;28;20058;-59
2022/06/22 09:50:07;;;;;;;13.50;5.68;;;23.50;99.90;;;;;;4986384;28;20145;-60
2022/06/22 09:53:12;;;;;;;14.85;9.02;;;23.50;99.90;;;;;;4995176;28;20476;-58
2022/06/22 09:56:19;;;;;;;17.67;12.40;;;23.40;99.90;;;;;;4995205;28;20420;-59
2022/06/22 09:59:06;;;;;;;10.43;5.32;;;23.40;99.90;;;;;;4995184;28;20030;-60
2022/06/22 10:01:44;;;;;;;8.45;2.20;;;23.40;99.90;;;;;;4994967;28;20161;-59
2022/06/22 10:04:46;;;;;;;10.80;2.85;;;23.50;99.90;;;;;;4995109;28;20049;-59
2022/06/22 10:07:47;;;;;;;6.43;3.47;;;23.40;99.90;;;;;;4994967;28;20110;-61
2022/06/22 10:10:28;;;;;;;7.32;3.85;;;23.50;99.90;;;;;;4986612;28;20093;-59
2022/06/22 10:13:16;;;;;;;4.25;1.73;;;23.50;99.90;;;;;;4994843;28;20113;-62
2022/06/22 10:15:56;;;;;;;5.50;1.73;;;23.50;99.90;;;;;;4994922;28;20033;-59
2022/06/22 10:18:40;;;;;;;6.32;1.98;;;23.50;99.90;;;;;;4994925;28;20034;-58
2022/06/22 10:21:28;;;;;;;7.38;2.33;;;23.60;99.90;;;;;;4994643;28;20093;-59
2022/06/22 10:24:26;;;;;;;6.35;2.17;;;23.50;99.90;;;;;;4994594;28;20030;-59
2022/06/22 10:27:21;;;;;;;8.55;3.63;;;23.60;99.90;;;;;;4994842;28;20035;-60
2022/06/22 10:29:50;;;;;;;9.48;4.55;;;23.60;99.90;;;;;;4994553;28;20041;-61
2022/06/22 10:32:42;;;;;;;10.18;3.20;;;23.70;99.90;;;;;;4994403;28;20093;-59
2022/06/22 10:35:30;;;;;;;8.48;2.88;;;23.70;99.90;;;;;;4994596;28;20058;-61
2022/06/22 10:38:10;;;;;;;5.93;2.50;;;23.70;99.90;;;;;;4994468;28;20027;-59
2022/06/22 10:47:06;;;;;;;10.98;1.65;;;23.70;99.90;;;;;;4994559;28;20041;-59
2022/06/22 10:49:52;;;;;;;9.20;3.00;;;23.70;99.90;;;;;;4993933;28;20026;-59
2022/06/22 10:52:43;;;;;;;10.38;1.83;;;23.70;99.90;;;;;;4994124;28;20034;-59
2022/06/22 10:55:57;;;;;;;9.55;1.63;;;23.70;99.90;;;;;;4994244;28;20380;-59
2022/06/22 10:58:37;;;;;;;9.43;1.55;;;23.70;99.90;;;;;;4976909;28;20117;-58
2022/06/22 11:01:41;;;;;;;5.10;1.23;;;23.70;99.90;;;;;;4993724;28;20094;-59
2022/06/22 11:04:33;;;;;;;5.50;1.05;;;23.80;99.90;;;;;;4993902;28;20034;-59
2022/06/22 11:07:23;;;;;;;4.47;1.40;;;23.80;99.90;;;;;;4992697;28;20038;-59
2022/06/22 11:10:04;;;;;;;5.57;2.53;;;23.80;99.90;;;;;;4992534;28;20460;-59
2022/06/22 11:12:44;;;;;;;16.70;3.72;;;23.80;99.90;;;;;;4993654;28;20031;-59
2022/06/22 11:15:52;;;;;;;12.23;3.47;;;23.80;99.90;;;;;;4993605;28;20038;-60
2022/06/22 11:18:45;;;;;;;7.30;2.30;;;23.80;99.90;;;;;;4993655;28;20144;-61
2022/06/22 11:21:17;;;;;;;7.53;2.05;;;23.80;99.90;;;;;;4992287;28;20026;-60
2022/06/22 11:23:51;;;;;;;16.02;5.53;;;23.80;99.90;;;;;;4993497;28;20499;-61
2022/06/22 11:32:39;;;;;;;11.15;2.40;;;23.90;99.90;;;;;;4993180;28;20124;-59
2022/06/22 11:35:36;;;;;;;7.60;1.80;;;23.90;99.90;;;;;;4993320;28;20055;-59
2022/06/22 11:38:26;;;;;;;7.78;2.60;;;24.00;99.90;;;;;;4993258;28;20019;-60
2022/06/22 11:41:36;;;;;;;9.07;2.53;;;23.90;99.90;;;;;;4993508;28;20550;-60
2022/06/22 11:44:16;;;;;;;10.40;2.97;;;23.90;99.90;;;;;;4971396;28;20464;-60
2022/06/22 11:46:54;;;;;;;10.25;2.85;;;24.00;99.90;;;;;;4991879;28;20041;-62
2022/06/22 11:49:28;;;;;;;9.68;2.40;;;24.00;99.90;;;;;;4993196;28;20216;-64
2022/06/22 11:52:17;;;;;;;14.50;2.35;;;23.90;99.90;;;;;;4989867;28;20591;-60
2022/06/22 11:54:56;;;;;;;7.68;2.95;;;23.90;99.90;;;;;;4987687;28;20126;-57
2022/06/22 11:57:47;;;;;;;7.13;2.78;;;24.00;99.90;;;;;;4982053;28;20061;-58
2022/06/22 12:00:31;;;;;;;11.63;3.50;;;24.00;99.90;;;;;;4983679;28;20065;-58
2022/06/22 12:03:09;;;;;;;11.52;2.00;;;24.00;99.90;;;;;;4983803;28;20018;-58
2022/06/22 12:06:00;;;;;;;11.07;4.28;;;24.00;99.90;;;;;;4992927;28;20029;-59
2022/06/22 12:08:50;;;;;;;17.23;7.47;;;24.00;99.90;;;;;;4993201;28;20030;-61
2022/06/22 12:11:42;;;;;;;11.07;4.05;;;23.90;99.90;;;;;;4986477;28;20381;-59
2022/06/22 12:17:33;;;;;;;13.27;2.58;;;23.80;99.90;;;;;;4973104;28;20063;-60
2022/06/22 12:20:18;;;;;;;8.25;2.80;;;23.80;99.90;;;;;;4976433;28;20019;-57
2022/06/22 12:22:52;;;;;;;11.48;2.72;;;23.70;99.90;;;;;;4978374;28;20121;-55
2022/06/22 12:25:29;;;;;;;14.75;5.80;;;23.70;99.90;;;;;;4985226;28;20014;-61
2022/06/22 12:28:23;;;;;;;15.20;6.50;;;23.70;99.90;;;;;;4979964;28;20116;-54
2022/06/22 12:31:00;;;;;;;14.70;5.80;;;23.70;99.90;;;;;;4988044;28;20033;-58
2022/06/22 12:34:01;;;;;;;9.57;3.45;;;23.70;99.90;;;;;;4989927;28;20081;-58
2022/06/22 12:36:33;;;;;;;13.20;2.40;;;23.70;99.90;;;;;;4990067;28;20384;-57
2022/06/22 12:39:17;;;;;;;8.75;2.22;;;23.70;99.90;;;;;;4980328;28;20121;-60
2022/06/22 12:42:13;;;;;;;7.45;1.90;;;23.70;99.90;;;;;;4979719;28;20480;-55
2022/06/22 12:45:10;;;;;;;12.70;2.00;;;23.80;99.90;;;;;;4990930;28;20030;-70
2022/06/22 12:48:11;;;;;;;12.20;2.22;;;23.80;99.90;;;;;;4979248;28;20022;-60
2022/06/22 12:51:08;;;;;;;9.30;2.50;;;23.80;99.90;;;;;;4967665;28;20109;-70
2022/06/22 12:53:57;;;;;;;9.27;2.53;;;23.80;99.90;;;;;;4998772;28;20507;-64
2022/06/22 12:56:47;;;;;;;18.25;4.25;;;23.90;99.90;;;;;;4985881;28;20035;-57
2022/06/22 12:59:24;;;;;;;15.73;5.43;;;23.90;99.90;;;;;;4990639;28;20058;-58
2022/06/22 13:01:50;;;;;;;16.58;2.72;;;23.90;99.90;;;;;;4991582;28;20038;-65
2022/06/22 13:04:27;;;;;;;9.57;2.55;;;23.90;99.90;;;;;;4989977;28;20041;-65
2022/06/22 13:07:04;;;;;;;10.60;3.90;;;23.90;99.90;;;;;;4991464;28;20498;-66
2022/06/22 13:09:31;;;;;;;12.55;3.92;;;23.90;99.90;;;;;;4991066;28;20500;-64
2022/06/22 13:12:00;;;;;;;11.63;5.18;;;23.90;99.90;;;;;;4990842;28;20093;-61
2022/06/22 13:15:04;;;;;;;5.45;1.92;;;24.00;99.90;;;;;;4986191;28;20034;-61
2022/06/22 13:17:49;;;;;;;11.52;2.15;;;24.00;99.90;;;;;;4990684;28;20053;-61
2022/06/22 13:20:20;;;;;;;14.85;2.30;;;24.00;99.90;;;;;;4990738;28;20034;-63
2022/06/22 13:22:55;;;;;;;9.23;2.38;;;24.00;99.90;;;;;;4994456;28;20026;-63
2022/06/22 13:25:50;;;;;;;8.98;1.85;;;24.00;99.90;;;;;;4994126;28;20527;-68
2022/06/22 13:28:45;;;;;;;13.82;2.78;;;23.90;99.90;;;;;;4995325;28;20035;-66
2022/06/22 13:31:20;;;;;;;15.13;1.80;;;24.00;99.90;;;;;;4989314;28;20026;-57
2022/06/22 13:34:00;;;;;;;13.63;2.95;;;24.00;99.90;;;;;;4984672;28;20049;-55
2022/06/22 13:36:32;;;;;;;15.68;5.72;;;24.00;99.90;;;;;;4989080;28;20025;-55
2022/06/22 13:39:11;;;;;;;10.25;3.58;;;24.00;99.90;;;;;;4984871;28;20118;-58
2022/06/22 13:41:48;;;;;;;9.63;3.20;;;24.10;99.90;;;;;;4978755;28;20033;-57
2022/06/22 13:44:45;;;;;;;14.32;2.40;;;24.10;99.90;;;;;;4981235;28;20027;-52
2022/06/22 13:48:03;;;;;;;9.00;1.88;;;24.10;99.90;;;;;;4979021;28;20031;-60
2022/06/22 13:54:03;;;;;;;8.38;1.77;;;24.10;99.90;;;;;;4953871;28;20284;-57
2022/06/22 13:56:46;;;;;;;13.75;1.95;;;24.10;99.90;;;;;;4988711;28;20515;-55
2022/06/22 13:59:32;;;;;;;6.15;2.17;;;24.20;99.90;;;;;;4975134;28;20027;-55
2022/06/22 14:02:21;;;;;;;10.02;2.17;;;24.20;99.90;;;;;;4988920;28;20088;-57
2022/06/22 14:05:01;;;;;;;11.93;1.90;;;24.10;99.90;;;;;;4989681;28;20492;-58
2022/06/22 14:07:36;;;;;;;13.55;3.08;;;24.10;99.90;;;;;;4989343;28;20472;-61
2022/06/22 14:10:31;;;;;;;9.82;2.95;;;24.10;99.90;;;;;;4983803;28;20050;-61
2022/06/22 14:13:08;;;;;;;9.75;2.05;;;24.10;99.90;;;;;;4991586;28;20114;-61
2022/06/22 14:16:07;;;;;;;8.35;1.67;;;24.10;99.90;;;;;;4991457;28;20019;-62
2022/06/22 14:19:05;;;;;;;7.25;1.48;;;24.10;99.90;;;;;;4985293;28;20031;-59
2022/06/22 14:21:54;;;;;;;7.00;1.50;;;24.20;99.90;;;;;;4983945;28;20480;-59
2022/06/22 14:24:43;;;;;;;8.10;1.77;;;24.10;99.90;;;;;;4985734;28;20022;-61